createdAt,value
2017-08-14T00:00:31.734Z,101355.12
2017-08-14T00:02:59.199Z,101356.47
2017-08-14T00:05:26.579Z,101353.39
2017-08-14T00:07:53.749Z,101356.94
2017-08-14T00:10:21.377Z,101359.98
2017-08-14T00:12:48.557Z,101361.29
2017-08-14T00:15:15.729Z,101360.40
2017-08-14T00:17:42.950Z,101362.17
2017-08-14T00:20:10.196Z,101355.22
2017-08-14T00:22:37.380Z,101351.70
2017-08-14T00:25:04.712Z,101353.48
2017-08-14T00:27:31.881Z,101351.75
2017-08-14T00:29:59.515Z,101352.17
2017-08-14T00:32:27.084Z,101349.14
2017-08-14T00:34:54.252Z,101350.91
2017-08-14T00:37:21.770Z,101351.34
2017-08-14T00:39:49.146Z,101350.49
2017-08-14T00:42:16.708Z,101351.34
2017-08-14T00:44:44.134Z,101348.72
2017-08-14T00:47:11.321Z,101344.84
2017-08-14T00:49:38.854Z,101347.41
2017-08-14T00:52:06.026Z,101349.61
2017-08-14T00:54:33.216Z,101342.22
2017-08-14T00:57:00.427Z,101352.64
2017-08-14T00:59:27.949Z,101349.61
2017-08-14T01:01:55.189Z,101350.49
2017-08-14T01:04:22.357Z,101343.95
2017-08-14T01:06:49.547Z,101341.80
2017-08-14T01:09:16.789Z,101346.20
2017-08-14T01:11:43.971Z,101346.61
2017-08-14T01:14:11.276Z,101343.11
2017-08-14T01:16:38.540Z,101334.00
2017-08-14T01:19:05.728Z,101330.07
2017-08-14T01:21:33.358Z,101327.88
2017-08-14T01:24:00.541Z,101332.22
2017-08-14T01:26:27.705Z,101330.44
2017-08-14T01:28:54.910Z,101328.71
2017-08-14T01:31:22.365Z,101327.88
2017-08-14T01:33:49.889Z,101329.18
2017-08-14T01:36:17.275Z,101329.13
2017-08-14T01:38:44.801Z,101330.91
2017-08-14T01:41:11.980Z,101323.95
2017-08-14T01:43:39.535Z,101330.48
2017-08-14T01:46:06.708Z,101327.88
2017-08-14T01:48:33.947Z,101319.17
2017-08-14T01:51:01.127Z,101318.29
2017-08-14T01:53:28.318Z,101316.98
2017-08-14T01:55:55.822Z,101315.25
2017-08-14T01:58:23.363Z,101313.05
2017-08-14T02:00:50.559Z,101311.33
2017-08-14T02:03:17.950Z,101309.13
2017-08-14T02:05:45.191Z,101309.59
2017-08-14T02:08:13.121Z,101311.80
2017-08-14T02:10:40.288Z,101307.87
2017-08-14T02:13:07.460Z,101298.28
2017-08-14T02:15:34.758Z,101301.75
2017-08-14T02:18:02.205Z,101303.05
2017-08-14T02:20:29.978Z,101299.08
2017-08-14T02:22:57.156Z,101300.02
2017-08-14T02:25:24.580Z,101298.28
2017-08-14T02:27:51.760Z,101296.56
2017-08-14T02:30:18.933Z,101289.55
2017-08-14T02:32:46.408Z,101296.09
2017-08-14T02:35:13.584Z,101289.55
2017-08-14T02:37:41.142Z,101285.20
2017-08-14T02:40:08.314Z,101287.81
2017-08-14T02:42:35.557Z,101284.31
2017-08-14T02:45:03.143Z,101286.93
2017-08-14T02:47:30.460Z,101287.90
2017-08-14T02:49:57.928Z,101287.34
2017-08-14T02:52:25.380Z,101287.67
2017-08-14T02:54:52.841Z,101282.64
2017-08-14T02:57:20.027Z,101286.05
2017-08-14T02:59:47.207Z,101281.40
2017-08-14T03:02:14.464Z,101283.06
2017-08-14T03:04:41.957Z,101280.50
2017-08-14T03:07:09.147Z,101281.20
2017-08-14T03:09:36.664Z,101283.50
2017-08-14T03:12:04.186Z,101280.52
2017-08-14T03:14:31.573Z,101282.34
2017-08-14T03:16:58.768Z,101289.34
2017-08-14T03:19:26.288Z,101283.28
2017-08-14T03:21:53.830Z,101285.00
2017-08-14T03:24:21.409Z,101284.63
2017-08-14T03:26:48.578Z,101281.55
2017-08-14T03:29:16.022Z,101278.09
2017-08-14T03:31:43.194Z,101282.02
2017-08-14T03:34:10.611Z,101282.48
2017-08-14T03:36:38.184Z,101283.80
2017-08-14T03:39:05.726Z,101269.86
2017-08-14T03:41:33.300Z,101280.28
2017-08-14T03:44:01.065Z,101274.69
2017-08-14T03:46:28.251Z,101274.26
2017-08-14T03:48:55.421Z,101275.57
2017-08-14T03:51:22.627Z,101276.46
2017-08-14T03:53:49.815Z,101272.48
2017-08-14T03:56:17.272Z,101269.91
2017-08-14T03:58:44.445Z,101266.88
2017-08-14T04:01:11.614Z,101264.27
2017-08-14T04:03:38.800Z,101267.72
2017-08-14T04:06:05.990Z,101266.83
2017-08-14T04:08:34.159Z,101266.83
2017-08-14T04:11:01.676Z,101266.88
2017-08-14T04:13:28.853Z,101263.45
2017-08-14T04:15:56.022Z,101266.07
2017-08-14T04:18:23.300Z,101263.45
2017-08-14T04:20:50.764Z,101266.07
2017-08-14T04:23:17.959Z,101270.39
2017-08-14T04:25:45.374Z,101268.69
2017-08-14T04:28:12.541Z,101269.16
2017-08-14T04:30:40.188Z,101267.37
2017-08-14T04:33:07.442Z,101277.84
2017-08-14T04:35:34.895Z,101275.23
2017-08-14T04:38:02.417Z,101276.04
2017-08-14T04:40:29.934Z,101276.12
2017-08-14T04:42:57.132Z,101278.73
2017-08-14T04:45:24.409Z,101282.25
2017-08-14T04:47:51.876Z,101277.90
2017-08-14T04:50:19.428Z,101280.52
2017-08-14T04:52:46.970Z,101282.25
2017-08-14T04:55:16.248Z,101278.32
2017-08-14T04:57:43.852Z,101280.09
2017-08-14T05:00:11.373Z,101277.48
2017-08-14T05:02:38.640Z,101270.52
2017-08-14T05:05:05.826Z,101272.71
2017-08-14T05:07:33.012Z,101267.53
2017-08-14T05:10:00.668Z,101264.39
2017-08-14T05:12:28.160Z,101265.66
2017-08-14T05:14:55.754Z,101263.97
2017-08-14T05:17:22.925Z,101265.70
2017-08-14T05:19:50.106Z,101259.16
2017-08-14T05:22:17.288Z,101264.86
2017-08-14T05:24:44.660Z,101266.59
2017-08-14T05:27:11.844Z,101267.01
2017-08-14T05:29:39.267Z,101265.28
2017-08-14T05:32:06.721Z,101266.17
2017-08-14T05:34:34.181Z,101266.17
2017-08-14T05:37:01.808Z,101265.75
2017-08-14T05:39:28.995Z,101266.12
2017-08-14T05:41:56.179Z,101267.90
2017-08-14T05:44:23.388Z,101268.37
2017-08-14T05:46:50.903Z,101275.33
2017-08-14T05:49:18.396Z,101273.23
2017-08-14T05:51:45.566Z,101270.98
2017-08-14T05:54:12.912Z,101268.37
2017-08-14T05:56:40.148Z,101272.30
2017-08-14T05:59:07.317Z,101274.48
2017-08-14T06:01:34.729Z,101272.30
2017-08-14T06:04:01.976Z,101271.41
2017-08-14T06:06:29.589Z,101272.30
2017-08-14T06:08:57.035Z,101272.71
2017-08-14T06:11:24.496Z,101274.07
2017-08-14T06:13:51.952Z,101272.30
2017-08-14T06:16:19.121Z,101270.14
2017-08-14T06:18:46.560Z,101270.56
2017-08-14T06:21:14.016Z,101273.66
2017-08-14T06:23:41.791Z,101271.45
2017-08-14T06:26:09.304Z,101272.71
2017-08-14T06:28:36.822Z,101266.64
2017-08-14T06:31:04.152Z,101269.30
2017-08-14T06:33:31.610Z,101268.46
2017-08-14T06:35:58.795Z,101269.45
2017-08-14T06:38:25.980Z,101273.80
2017-08-14T06:40:53.374Z,101275.58
2017-08-14T06:43:21.001Z,101275.87
2017-08-14T06:45:48.217Z,101275.92
2017-08-14T06:48:15.484Z,101275.58
2017-08-14T06:50:42.664Z,101268.94
2017-08-14T06:53:10.041Z,101267.11
2017-08-14T06:55:37.489Z,101275.84
2017-08-14T06:58:04.665Z,101266.69
2017-08-14T07:00:31.854Z,101268.00
2017-08-14T07:02:59.366Z,101269.72
2017-08-14T07:05:26.908Z,101265.80
2017-08-14T07:07:54.077Z,101267.58
2017-08-14T07:10:21.249Z,101268.41
2017-08-14T07:12:48.469Z,101271.08
2017-08-14T07:15:16.126Z,101264.91
2017-08-14T07:17:43.312Z,101264.02
2017-08-14T07:20:10.612Z,101262.34
2017-08-14T07:22:37.801Z,101263.18
2017-08-14T07:25:05.322Z,101254.48
2017-08-14T07:27:32.909Z,101257.95
2017-08-14T07:30:00.364Z,101254.91
2017-08-14T07:32:27.820Z,101252.77
2017-08-14T07:34:54.990Z,101247.11
2017-08-14T07:37:22.172Z,101248.37
2017-08-14T07:39:49.764Z,101243.60
2017-08-14T07:42:16.937Z,101238.36
2017-08-14T07:44:44.179Z,101243.55
2017-08-14T07:47:11.353Z,101242.24
2017-08-14T07:49:38.899Z,101243.18
2017-08-14T07:52:06.066Z,101238.36
2017-08-14T07:54:33.247Z,101242.24
2017-08-14T07:57:00.425Z,101241.83
2017-08-14T07:59:27.632Z,101241.83
2017-08-14T08:01:54.843Z,101241.45
2017-08-14T08:04:22.305Z,101237.06
2017-08-14T08:06:49.759Z,101237.95
2017-08-14T08:09:16.996Z,101234.91
2017-08-14T08:11:44.376Z,101233.13
2017-08-14T08:14:11.825Z,101227.05
2017-08-14T08:16:39.361Z,101231.41
2017-08-14T08:19:06.563Z,101229.67
2017-08-14T08:21:33.893Z,101229.67
2017-08-14T08:24:01.342Z,101231.41
2017-08-14T08:26:28.513Z,101223.97
2017-08-14T08:28:55.956Z,101225.28
2017-08-14T08:31:23.465Z,101231.82
2017-08-14T08:33:50.867Z,101229.20
2017-08-14T08:36:18.199Z,101224.44
2017-08-14T08:38:45.477Z,101229.63
2017-08-14T08:41:13.134Z,101229.63
2017-08-14T08:43:40.304Z,101233.55
2017-08-14T08:46:07.477Z,101232.71
2017-08-14T08:48:34.691Z,101234.02
2017-08-14T08:51:01.861Z,101229.25
2017-08-14T08:53:29.445Z,101224.86
2017-08-14T08:55:56.936Z,101220.94
2017-08-14T08:58:24.526Z,101217.84
2017-08-14T09:00:51.977Z,101220.94
2017-08-14T09:03:19.490Z,101222.71
2017-08-14T09:05:46.675Z,101212.66
2017-08-14T09:08:14.040Z,101219.16
2017-08-14T09:10:41.501Z,101214.02
2017-08-14T09:13:08.808Z,101215.33
2017-08-14T09:15:35.977Z,101207.89
2017-08-14T09:18:03.257Z,101213.13
2017-08-14T09:20:30.456Z,101206.59
2017-08-14T09:22:57.636Z,101205.70
2017-08-14T09:25:25.022Z,101205.23
2017-08-14T09:27:52.204Z,101207.01
2017-08-14T09:30:19.620Z,101199.16
2017-08-14T09:32:46.793Z,101195.66
2017-08-14T09:35:14.289Z,101196.12
2017-08-14T09:37:41.682Z,101193.03
2017-08-14T09:40:09.226Z,101186.96
2017-08-14T09:42:36.412Z,101192.61
2017-08-14T09:45:03.603Z,101190.47
2017-08-14T09:47:30.773Z,101196.07
2017-08-14T09:49:58.047Z,101189.58
2017-08-14T09:52:25.231Z,101186.13
2017-08-14T09:54:52.662Z,101180.42
2017-08-14T09:57:19.833Z,101182.24
2017-08-14T09:59:47.312Z,101181.34
2017-08-14T10:02:14.833Z,101175.52
2017-08-14T10:04:42.002Z,101176.56
2017-08-14T10:07:09.184Z,101172.09
2017-08-14T10:09:36.476Z,101175.34
2017-08-14T10:12:04.128Z,101172.39
2017-08-14T10:14:31.707Z,101166.44
2017-08-14T10:16:59.478Z,101163.19
2017-08-14T10:19:26.918Z,101165.48
2017-08-14T10:21:54.089Z,101161.66
2017-08-14T10:24:21.535Z,101159.52
2017-08-14T10:26:48.708Z,101160.06
2017-08-14T10:29:16.135Z,101160.53
2017-08-14T10:31:43.309Z,101151.84
2017-08-14T10:34:10.486Z,101154.88
2017-08-14T10:36:37.690Z,101155.82
2017-08-14T10:39:04.877Z,101158.44
2017-08-14T10:41:32.197Z,101155.41
2017-08-14T10:43:59.373Z,101153.20
2017-08-14T10:46:27.113Z,101152.78
2017-08-14T10:48:54.300Z,101151.05
2017-08-14T10:51:21.492Z,101151.05
2017-08-14T10:53:48.858Z,101147.60
2017-08-14T10:56:16.045Z,101144.56
2017-08-14T10:58:43.529Z,101140.59
2017-08-14T11:01:10.697Z,101145.35
2017-08-14T11:03:38.076Z,101139.33
2017-08-14T11:06:05.246Z,101134.52
2017-08-14T11:08:32.775Z,101130.59
2017-08-14T11:11:00.143Z,101128.81
2017-08-14T11:13:27.332Z,101121.89
2017-08-14T11:15:54.497Z,101119.28
2017-08-14T11:18:22.213Z,101121.43
2017-08-14T11:20:49.385Z,101119.70
2017-08-14T11:23:16.859Z,101120.59
2017-08-14T11:25:44.047Z,101112.27
2017-08-14T11:28:11.229Z,101109.28
2017-08-14T11:30:38.756Z,101113.58
2017-08-14T11:33:05.944Z,101107.09
2017-08-14T11:35:33.365Z,101101.84
2017-08-14T11:38:00.542Z,101098.39
2017-08-14T11:40:27.949Z,101087.09
2017-08-14T11:42:55.557Z,101092.32
2017-08-14T11:45:22.725Z,101091.02
2017-08-14T11:47:49.898Z,101092.74
2017-08-14T11:50:17.312Z,101084.42
2017-08-14T11:52:44.860Z,101078.77
2017-08-14T11:55:12.404Z,101082.27
2017-08-14T11:57:39.990Z,101083.58
2017-08-14T12:00:07.444Z,101081.37
2017-08-14T12:02:34.954Z,101076.63
2017-08-14T12:05:02.145Z,101081.80
2017-08-14T12:07:29.318Z,101077.87
2017-08-14T12:09:56.655Z,101073.53
2017-08-14T12:12:23.853Z,101073.53
2017-08-14T12:14:51.265Z,101069.61
2017-08-14T12:17:18.785Z,101069.19
2017-08-14T12:19:46.125Z,101064.42
2017-08-14T12:22:13.311Z,101062.22
2017-08-14T12:24:40.779Z,101058.72
2017-08-14T12:27:08.239Z,101050.03
2017-08-14T12:29:35.772Z,101051.75
2017-08-14T12:32:03.172Z,101047.83
2017-08-14T12:34:30.355Z,101049.56
2017-08-14T12:36:57.542Z,101053.12
2017-08-14T12:39:24.741Z,101054.00
2017-08-14T12:41:51.910Z,101051.28
2017-08-14T12:44:19.081Z,101046.47
2017-08-14T12:46:46.418Z,101047.78
2017-08-14T12:49:13.815Z,101053.43
2017-08-14T12:51:40.994Z,101045.16
2017-08-14T12:54:08.519Z,101043.85
2017-08-14T12:56:35.884Z,101046.94
2017-08-14T12:59:03.530Z,101045.62
2017-08-14T13:01:30.794Z,101039.98
2017-08-14T13:03:57.975Z,101036.94
2017-08-14T13:06:25.722Z,101030.34
2017-08-14T13:08:52.911Z,101034.33
2017-08-14T13:11:20.085Z,101029.51
2017-08-14T13:13:47.269Z,101026.89
2017-08-14T13:16:14.456Z,101022.08
2017-08-14T13:18:41.969Z,101014.28
2017-08-14T13:21:09.155Z,101014.70
2017-08-14T13:23:36.340Z,101013.39
2017-08-14T13:26:04.456Z,101013.39
2017-08-14T13:28:31.639Z,101016.89
2017-08-14T13:30:59.056Z,101016.01
2017-08-14T13:33:26.573Z,101016.01
2017-08-14T13:35:53.745Z,101007.69
2017-08-14T13:38:20.913Z,101005.85
2017-08-14T13:40:48.274Z,101008.31
2017-08-14T13:43:15.449Z,101011.40
2017-08-14T13:45:43.088Z,101001.03
2017-08-14T13:48:10.668Z,101004.44
2017-08-14T13:50:38.044Z,101001.38
2017-08-14T13:53:05.237Z,100995.59
2017-08-14T13:55:32.780Z,100986.31
2017-08-14T13:57:59.968Z,100986.70
2017-08-14T14:00:27.322Z,100982.36
2017-08-14T14:02:54.773Z,100984.34
2017-08-14T14:05:22.422Z,100985.78
2017-08-14T14:07:49.596Z,100976.58
2017-08-14T14:10:16.778Z,100979.02
2017-08-14T14:12:43.989Z,100975.67
2017-08-14T14:15:11.445Z,100971.38
2017-08-14T14:17:38.965Z,100971.48
2017-08-14T14:20:06.137Z,100973.68
2017-08-14T14:22:33.311Z,100964.57
2017-08-14T14:25:00.667Z,100966.38
2017-08-14T14:27:27.845Z,100960.31
2017-08-14T14:29:55.013Z,100963.77
2017-08-14T14:32:22.215Z,100960.37
2017-08-14T14:34:49.682Z,100951.63
2017-08-14T14:37:16.872Z,100955.13
2017-08-14T14:39:44.049Z,100948.64
2017-08-14T14:42:11.506Z,100945.55
2017-08-14T14:44:38.788Z,100944.66
2017-08-14T14:47:06.003Z,100941.20
2017-08-14T14:49:33.391Z,100939.95
2017-08-14T14:52:00.954Z,100937.34
2017-08-14T14:54:28.136Z,100936.03
2017-08-14T14:56:55.448Z,100932.52
2017-08-14T14:59:22.652Z,100928.59
2017-08-14T15:01:50.059Z,100930.38
2017-08-14T15:04:17.251Z,100925.14
2017-08-14T15:06:44.782Z,100922.94
2017-08-14T15:09:11.950Z,100924.72
2017-08-14T15:11:39.343Z,100924.72
2017-08-14T15:14:06.727Z,100923.83
2017-08-14T15:16:33.897Z,100918.66
2017-08-14T15:19:01.653Z,100914.67
2017-08-14T15:21:28.837Z,100916.88
2017-08-14T15:23:56.246Z,100915.62
2017-08-14T15:26:23.772Z,100905.09
2017-08-14T15:28:50.951Z,100907.34
2017-08-14T15:31:18.133Z,100900.75
2017-08-14T15:33:45.648Z,100900.80
2017-08-14T15:36:12.836Z,100898.19
2017-08-14T15:38:40.389Z,100896.88
2017-08-14T15:41:07.561Z,100892.53
2017-08-14T15:43:35.093Z,100893.84
2017-08-14T15:46:02.264Z,100892.90
2017-08-14T15:48:29.448Z,100891.64
2017-08-14T15:50:56.944Z,100885.98
2017-08-14T15:53:24.517Z,100888.19
2017-08-14T15:55:51.700Z,100883.32
2017-08-14T15:58:18.869Z,100882.06
2017-08-14T16:00:46.052Z,100885.58
2017-08-14T16:03:13.482Z,100884.69
2017-08-14T16:05:40.876Z,100873.74
2017-08-14T16:08:08.060Z,100869.03
2017-08-14T16:10:35.490Z,100875.11
2017-08-14T16:13:02.661Z,100872.91
2017-08-14T16:15:29.965Z,100870.77
2017-08-14T16:17:57.134Z,100865.95
2017-08-14T16:20:25.011Z,100863.80
2017-08-14T16:22:52.195Z,100866.36
2017-08-14T16:25:19.537Z,100866.42
2017-08-14T16:27:46.761Z,100863.75
2017-08-14T16:30:13.947Z,100863.33
2017-08-14T16:32:41.289Z,100864.64
2017-08-14T16:35:08.473Z,100856.37
2017-08-14T16:37:35.675Z,100851.55
2017-08-14T16:40:03.191Z,100847.63
2017-08-14T16:42:30.358Z,100844.59
2017-08-14T16:44:57.737Z,100843.70
2017-08-14T16:47:25.321Z,100840.66
2017-08-14T16:49:52.498Z,100842.87
2017-08-14T16:52:19.951Z,100847.68
2017-08-14T16:54:47.130Z,100842.87
2017-08-14T16:57:14.719Z,100835.91
2017-08-14T16:59:42.353Z,100848.57
2017-08-14T17:02:09.598Z,100846.38
2017-08-14T17:04:37.702Z,100841.55
2017-08-14T17:07:04.900Z,100834.55
2017-08-14T17:09:32.679Z,100828.89
2017-08-14T17:12:00.068Z,100830.67
2017-08-14T17:14:27.840Z,100833.29
2017-08-14T17:16:55.064Z,100832.39
2017-08-14T17:19:22.806Z,100825.91
2017-08-14T17:21:50.334Z,100826.75
2017-08-14T17:24:17.778Z,100827.58
2017-08-14T17:26:45.495Z,100817.84
2017-08-14T17:29:12.986Z,100818.47
2017-08-14T17:31:40.173Z,100815.98
2017-08-14T17:34:07.341Z,100816.66
2017-08-14T17:36:34.524Z,100820.05
2017-08-14T17:39:01.789Z,100818.88
2017-08-14T17:41:29.325Z,100820.19
2017-08-14T17:43:56.706Z,100814.34
2017-08-14T17:46:24.477Z,100817.12
2017-08-14T17:48:51.663Z,100822.02
2017-08-14T17:51:19.079Z,100822.50
2017-08-14T17:53:46.711Z,100815.11
2017-08-14T17:56:14.304Z,100819.09
2017-08-14T17:58:41.481Z,100824.33
2017-08-14T18:01:08.912Z,100829.56
2017-08-14T18:03:37.288Z,100825.69
2017-08-14T18:06:04.478Z,100822.24
2017-08-14T18:08:31.657Z,100828.31
2017-08-14T18:10:58.836Z,100829.20
2017-08-14T18:13:26.374Z,100824.86
2017-08-14T18:15:53.890Z,100827.47
2017-08-14T18:18:22.341Z,100824.02
2017-08-14T18:20:50.181Z,100830.09
2017-08-14T18:23:17.556Z,100834.48
2017-08-14T18:25:45.087Z,100833.59
2017-08-14T18:28:12.577Z,100826.64
2017-08-14T18:30:40.240Z,100826.27
2017-08-14T18:33:07.789Z,100824.49
2017-08-14T18:35:34.977Z,100827.53
2017-08-14T18:38:02.335Z,100832.77
2017-08-14T18:40:30.049Z,100818.37
2017-08-14T18:42:57.614Z,100828.00
2017-08-14T18:45:24.982Z,100828.42
2017-08-14T18:47:52.518Z,100827.11
2017-08-14T18:50:19.897Z,100827.53
2017-08-14T18:52:47.076Z,100835.80
2017-08-14T18:55:14.262Z,100837.16
2017-08-14T18:57:41.959Z,100827.58
2017-08-14T19:00:10.343Z,100830.62
2017-08-14T19:02:38.107Z,100834.13
2017-08-14T19:05:05.863Z,100842.81
2017-08-14T19:07:34.354Z,100839.78
2017-08-14T19:10:01.285Z,100839.36
2017-08-14T19:12:28.740Z,100849.35
2017-08-14T19:14:56.314Z,100844.13
2017-08-14T19:17:23.746Z,100840.66
2017-08-14T19:19:50.930Z,100838.52
2017-08-14T19:22:18.684Z,100842.87
2017-08-14T19:24:46.303Z,100841.98
2017-08-14T19:27:13.601Z,100837.63
2017-08-14T19:29:41.606Z,100842.39
2017-08-14T19:32:09.604Z,100845.06
2017-08-14T19:34:36.895Z,100846.80
2017-08-14T19:37:04.434Z,100843.34
2017-08-14T19:39:31.635Z,100843.76
2017-08-14T19:41:58.834Z,100840.25
2017-08-14T19:44:26.108Z,100840.30
2017-08-14T19:46:53.871Z,100841.55
2017-08-14T19:49:21.325Z,100838.52
2017-08-14T19:51:48.786Z,100842.03
2017-08-14T19:54:16.312Z,100839.88
2017-08-14T19:56:43.825Z,100840.72
2017-08-14T19:59:11.007Z,100839.00
2017-08-14T20:01:39.749Z,100841.61
2017-08-14T20:04:07.306Z,100842.03
2017-08-14T20:06:34.820Z,100840.30
2017-08-14T20:09:02.365Z,100837.69
2017-08-14T20:11:30.286Z,100838.52
2017-08-14T20:13:57.650Z,100834.18
2017-08-14T20:16:25.271Z,100837.22
2017-08-14T20:18:52.965Z,100834.65
2017-08-14T20:21:20.545Z,100830.73
2017-08-14T20:23:48.094Z,100834.18
2017-08-14T20:26:16.260Z,100838.94
2017-08-14T20:28:43.713Z,100825.02
2017-08-14T20:31:11.994Z,100833.76
2017-08-14T20:33:39.245Z,100840.72
2017-08-14T20:36:06.690Z,100847.27
2017-08-14T20:38:34.949Z,100865.58
2017-08-14T20:41:02.234Z,100849.88
2017-08-14T20:43:29.863Z,100845.48
2017-08-14T20:45:57.140Z,100840.72
2017-08-14T20:48:24.608Z,100834.18
2017-08-14T20:50:51.862Z,100858.20
2017-08-14T20:53:19.776Z,100870.81
2017-08-14T20:55:47.369Z,100859.45
2017-08-14T20:58:15.674Z,100862.55
2017-08-14T21:00:43.426Z,100859.45
2017-08-14T21:03:10.877Z,100855.64
2017-08-14T21:05:38.540Z,100844.80
2017-08-14T21:08:05.822Z,100838.82
2017-08-14T21:10:33.346Z,100823.31
2017-08-14T21:13:00.718Z,100823.48
2017-08-14T21:15:28.160Z,100825.66
2017-08-14T21:17:55.356Z,100821.28
2017-08-14T21:20:22.868Z,100829.34
2017-08-14T21:22:50.045Z,100837.84
2017-08-14T21:25:17.376Z,100822.77
2017-08-14T21:27:44.832Z,100819.83
2017-08-14T21:30:12.287Z,100827.31
2017-08-14T21:32:39.930Z,100819.04
2017-08-14T21:35:07.106Z,100817.31
2017-08-14T21:37:34.273Z,100813.45
2017-08-14T21:40:01.556Z,100826.53
2017-08-14T21:42:29.048Z,100816.53
2017-08-14T21:44:56.288Z,100816.53
2017-08-14T21:47:23.568Z,100821.41
2017-08-14T21:49:51.037Z,100809.63
2017-08-14T21:52:18.228Z,100807.02
2017-08-14T21:54:45.397Z,100809.20
2017-08-14T21:57:12.851Z,100813.55
2017-08-14T21:59:40.504Z,100814.45
2017-08-14T22:02:08.068Z,100814.86
2017-08-14T22:04:35.264Z,100821.88
2017-08-14T22:07:02.797Z,100820.56
2017-08-14T22:09:31.342Z,100810.09
2017-08-14T22:11:58.832Z,100814.45
2017-08-14T22:14:26.670Z,100813.13
2017-08-14T22:16:54.216Z,100809.69
2017-08-14T22:19:22.533Z,100810.98
2017-08-14T22:21:50.120Z,100807.06
2017-08-14T22:24:17.580Z,100808.84
2017-08-14T22:26:45.037Z,100814.92
2017-08-14T22:29:12.492Z,100811.46
2017-08-14T22:31:40.045Z,100811.88
2017-08-14T22:34:07.587Z,100813.13
2017-08-14T22:36:34.761Z,100810.98
2017-08-14T22:39:02.197Z,100808.80
2017-08-14T22:41:29.662Z,100810.98
2017-08-14T22:43:57.441Z,100804.92
2017-08-14T22:46:25.008Z,100810.57
2017-08-14T22:48:53.936Z,100807.13
2017-08-14T22:51:23.359Z,100804.08
2017-08-14T23:09:55.985Z,100801.41
2017-08-14T23:12:23.171Z,100803.19
2017-08-14T23:14:50.589Z,100800.58
2017-08-14T23:17:18.100Z,100795.81
2017-08-14T23:19:45.619Z,100793.62
2017-08-14T23:22:12.794Z,100796.18
2017-08-14T23:24:40.112Z,100790.53
2017-08-14T23:27:07.300Z,100795.81
2017-08-14T23:29:34.717Z,100792.31
2017-08-14T23:32:02.178Z,100794.45
2017-08-14T23:34:29.639Z,100787.08
2017-08-14T23:36:57.216Z,100788.38
2017-08-14T23:39:24.545Z,100789.69
2017-08-14T23:41:51.732Z,100792.31
2017-08-14T23:44:19.153Z,100791.00
2017-08-14T23:46:46.330Z,100786.66
2017-08-14T23:49:13.761Z,100789.69
2017-08-14T23:51:41.216Z,100786.66
2017-08-14T23:54:08.677Z,100773.58
2017-08-14T23:56:35.860Z,100777.50
2017-08-14T23:59:03.030Z,100777.50
